sensor_id;sensor_type;location;lat;lon;timestamp;P1;durP1;ratioP1;P2;durP2;ratioP2
75520;SDS011;64102;48.628;9.002;2024-03-02T00:02:07;8.52;;;1.38;;
75520;SDS011;64102;48.628;9.002;2024-03-02T00:04:33;8.90;;;1.40;;
75520;SDS011;64102;48.628;9.002;2024-03-02T00:06:58;13.38;;;1.67;;
75520;SDS011;64102;48.628;9.002;2024-03-02T00:09:24;11.63;;;2.00;;
75520;SDS011;64102;48.628;9.002;2024-03-02T00:11:49;13.27;;;2.13;;
75520;SDS011;64102;48.628;9.002;2024-03-02T00:14:16;12.57;;;1.85;;
75520;SDS011;64102;48.628;9.002;2024-03-02T00:16:41;11.60;;;2.00;;
75520;SDS011;64102;48.628;9.002;2024-03-02T00:19:07;10.93;;;2.08;;
75520;SDS011;64102;48.628;9.002;2024-03-02T00:21:34;11.60;;;2.33;;
75520;SDS011;64102;48.628;9.002;2024-03-02T00:23:59;13.07;;;1.95;;
75520;SDS011;64102;48.628;9.002;2024-03-02T00:26:27;11.18;;;2.10;;
75520;SDS011;64102;48.628;9.002;2024-03-02T00:28:56;11.25;;;2.13;;
75520;SDS011;64102;48.628;9.002;2024-03-02T00:31:22;10.63;;;2.20;;
75520;SDS011;64102;48.628;9.002;2024-03-02T00:33:48;10.27;;;1.77;;
75520;SDS011;64102;48.628;9.002;2024-03-02T00:36:15;8.73;;;1.55;;
75520;SDS011;64102;48.628;9.002;2024-03-02T00:38:48;10.13;;;1.95;;
75520;SDS011;64102;48.628;9.002;2024-03-02T00:41:25;8.40;;;1.20;;
75520;SDS011;64102;48.628;9.002;2024-03-02T00:44:02;16.52;;;2.40;;
75520;SDS011;64102;48.628;9.002;2024-03-02T00:49:01;11.55;;;1.70;;
75520;SDS011;64102;48.628;9.002;2024-03-02T00:51:47;11.35;;;2.20;;
75520;SDS011;64102;48.628;9.002;2024-03-02T00:54:15;10.90;;;1.88;;
75520;SDS011;64102;48.628;9.002;2024-03-02T00:56:45;8.75;;;1.63;;
75520;SDS011;64102;48.628;9.002;2024-03-02T00:59:12;13.00;;;2.58;;
75520;SDS011;64102;48.628;9.002;2024-03-02T01:01:37;12.02;;;2.10;;
75520;SDS011;64102;48.628;9.002;2024-03-02T01:04:03;12.20;;;2.47;;
75520;SDS011;64102;48.628;9.002;2024-03-02T01:06:29;13.23;;;2.22;;
75520;SDS011;64102;48.628;9.002;2024-03-02T01:08:55;12.50;;;2.20;;
75520;SDS011;64102;48.628;9.002;2024-03-02T01:11:20;12.70;;;2.30;;
75520;SDS011;64102;48.628;9.002;2024-03-02T01:13:48;14.82;;;2.85;;
75520;SDS011;64102;48.628;9.002;2024-03-02T01:16:14;13.85;;;2.15;;
75520;SDS011;64102;48.628;9.002;2024-03-02T01:18:40;13.30;;;2.35;;
75520;SDS011;64102;48.628;9.002;2024-03-02T01:21:06;10.65;;;2.08;;
75520;SDS011;64102;48.628;9.002;2024-03-02T01:23:32;11.50;;;2.22;;
75520;SDS011;64102;48.628;9.002;2024-03-02T01:25:57;12.70;;;2.72;;
75520;SDS011;64102;48.628;9.002;2024-03-02T01:28:23;13.50;;;2.70;;
75520;SDS011;64102;48.628;9.002;2024-03-02T01:30:48;11.73;;;2.15;;
75520;SDS011;64102;48.628;9.002;2024-03-02T01:33:14;13.90;;;2.45;;
75520;SDS011;64102;48.628;9.002;2024-03-02T01:35:39;13.65;;;2.42;;
75520;SDS011;64102;48.628;9.002;2024-03-02T01:38:05;12.80;;;2.75;;
75520;SDS011;64102;48.628;9.002;2024-03-02T01:40:36;11.60;;;2.78;;
75520;SDS011;64102;48.628;9.002;2024-03-02T01:43:06;13.40;;;2.40;;
75520;SDS011;64102;48.628;9.002;2024-03-02T01:45:32;13.13;;;2.40;;
75520;SDS011;64102;48.628;9.002;2024-03-02T01:47:58;11.77;;;2.15;;
75520;SDS011;64102;48.628;9.002;2024-03-02T01:50:27;14.90;;;3.00;;
75520;SDS011;64102;48.628;9.002;2024-03-02T01:52:54;13.55;;;2.58;;
75520;SDS011;64102;48.628;9.002;2024-03-02T01:55:20;11.05;;;2.40;;
75520;SDS011;64102;48.628;9.002;2024-03-02T01:57:46;12.18;;;2.17;;
75520;SDS011;64102;48.628;9.002;2024-03-02T02:00:12;16.15;;;2.60;;
75520;SDS011;64102;48.628;9.002;2024-03-02T02:02:38;12.57;;;3.00;;
75520;SDS011;64102;48.628;9.002;2024-03-02T02:05:04;14.20;;;2.35;;
75520;SDS011;64102;48.628;9.002;2024-03-02T02:07:29;12.75;;;2.90;;
75520;SDS011;64102;48.628;9.002;2024-03-02T02:09:55;12.48;;;2.22;;
75520;SDS011;64102;48.628;9.002;2024-03-02T02:12:20;15.10;;;2.88;;
75520;SDS011;64102;48.628;9.002;2024-03-02T02:14:49;14.85;;;2.95;;
75520;SDS011;64102;48.628;9.002;2024-03-02T02:17:17;13.45;;;2.42;;
75520;SDS011;64102;48.628;9.002;2024-03-02T02:19:43;13.63;;;3.17;;
75520;SDS011;64102;48.628;9.002;2024-03-02T02:22:09;13.57;;;2.60;;
75520;SDS011;64102;48.628;9.002;2024-03-02T02:24:35;12.00;;;2.40;;
75520;SDS011;64102;48.628;9.002;2024-03-02T02:27:00;15.25;;;3.58;;
75520;SDS011;64102;48.628;9.002;2024-03-02T02:29:26;14.57;;;2.67;;
75520;SDS011;64102;48.628;9.002;2024-03-02T02:31:51;13.70;;;2.72;;
75520;SDS011;64102;48.628;9.002;2024-03-02T02:34:17;14.80;;;3.13;;
75520;SDS011;64102;48.628;9.002;2024-03-02T02:36:43;14.68;;;3.20;;
75520;SDS011;64102;48.628;9.002;2024-03-02T02:39:10;15.57;;;3.45;;
75520;SDS011;64102;48.628;9.002;2024-03-02T02:41:38;13.40;;;2.92;;
75520;SDS011;64102;48.628;9.002;2024-03-02T02:44:04;14.93;;;3.53;;
75520;SDS011;64102;48.628;9.002;2024-03-02T02:46:30;11.43;;;2.05;;
75520;SDS011;64102;48.628;9.002;2024-03-02T02:48:55;16.15;;;2.80;;
75520;SDS011;64102;48.628;9.002;2024-03-02T02:51:21;13.63;;;2.83;;
75520;SDS011;64102;48.628;9.002;2024-03-02T02:53:46;14.93;;;2.83;;
75520;SDS011;64102;48.628;9.002;2024-03-02T02:56:11;12.70;;;2.30;;
75520;SDS011;64102;48.628;9.002;2024-03-02T02:58:37;14.65;;;2.40;;
75520;SDS011;64102;48.628;9.002;2024-03-02T03:01:02;13.32;;;2.60;;
75520;SDS011;64102;48.628;9.002;2024-03-02T03:03:28;14.73;;;2.45;;
75520;SDS011;64102;48.628;9.002;2024-03-02T03:05:54;12.05;;;2.40;;
75520;SDS011;64102;48.628;9.002;2024-03-02T03:08:19;12.83;;;2.37;;
75520;SDS011;64102;48.628;9.002;2024-03-02T03:10:45;13.73;;;2.80;;
75520;SDS011;64102;48.628;9.002;2024-03-02T03:13:10;15.63;;;3.40;;
75520;SDS011;64102;48.628;9.002;2024-03-02T03:15:35;10.60;;;2.10;;
75520;SDS011;64102;48.628;9.002;2024-03-02T03:18:01;12.55;;;2.10;;
75520;SDS011;64102;48.628;9.002;2024-03-02T03:20:28;11.98;;;2.38;;
75520;SDS011;64102;48.628;9.002;2024-03-02T03:22:55;10.63;;;2.10;;
75520;SDS011;64102;48.628;9.002;2024-03-02T03:25:20;15.20;;;3.08;;
75520;SDS011;64102;48.628;9.002;2024-03-02T03:27:46;13.35;;;2.47;;
75520;SDS011;64102;48.628;9.002;2024-03-02T03:30:12;11.77;;;3.03;;
75520;SDS011;64102;48.628;9.002;2024-03-02T03:32:37;11.80;;;2.08;;
75520;SDS011;64102;48.628;9.002;2024-03-02T03:35:03;11.10;;;2.15;;
75520;SDS011;64102;48.628;9.002;2024-03-02T03:37:29;12.48;;;1.52;;
75520;SDS011;64102;48.628;9.002;2024-03-02T03:39:58;12.38;;;2.33;;
75520;SDS011;64102;48.628;9.002;2024-03-02T03:42:26;15.40;;;2.17;;
75520;SDS011;64102;48.628;9.002;2024-03-02T03:44:52;11.95;;;2.60;;
75520;SDS011;64102;48.628;9.002;2024-03-02T03:47:17;12.93;;;2.25;;
75520;SDS011;64102;48.628;9.002;2024-03-02T03:49:43;10.57;;;1.65;;
75520;SDS011;64102;48.628;9.002;2024-03-02T03:52:08;8.53;;;1.53;;
75520;SDS011;64102;48.628;9.002;2024-03-02T03:54:33;10.30;;;2.17;;
75520;SDS011;64102;48.628;9.002;2024-03-02T03:56:59;11.10;;;2.42;;
75520;SDS011;64102;48.628;9.002;2024-03-02T03:59:24;9.13;;;1.73;;
75520;SDS011;64102;48.628;9.002;2024-03-02T04:01:49;9.70;;;1.37;;
75520;SDS011;64102;48.628;9.002;2024-03-02T04:04:15;10.97;;;1.67;;
75520;SDS011;64102;48.628;9.002;2024-03-02T04:06:40;10.98;;;1.75;;
75520;SDS011;64102;48.628;9.002;2024-03-02T04:09:05;11.57;;;2.28;;
75520;SDS011;64102;48.628;9.002;2024-03-02T04:11:31;9.63;;;1.35;;
75520;SDS011;64102;48.628;9.002;2024-03-02T04:13:56;13.40;;;2.05;;
75520;SDS011;64102;48.628;9.002;2024-03-02T04:16:22;14.73;;;2.70;;
75520;SDS011;64102;48.628;9.002;2024-03-02T04:18:47;12.00;;;2.50;;
75520;SDS011;64102;48.628;9.002;2024-03-02T04:21:13;9.88;;;1.60;;
75520;SDS011;64102;48.628;9.002;2024-03-02T04:23:38;9.60;;;1.50;;
75520;SDS011;64102;48.628;9.002;2024-03-02T04:26:04;12.68;;;2.10;;
75520;SDS011;64102;48.628;9.002;2024-03-02T04:28:29;12.30;;;2.00;;
75520;SDS011;64102;48.628;9.002;2024-03-02T04:30:54;13.32;;;2.40;;
75520;SDS011;64102;48.628;9.002;2024-03-02T04:33:20;15.73;;;2.90;;
75520;SDS011;64102;48.628;9.002;2024-03-02T04:35:45;13.02;;;2.35;;
75520;SDS011;64102;48.628;9.002;2024-03-02T04:38:11;13.93;;;2.03;;
75520;SDS011;64102;48.628;9.002;2024-03-02T04:40:36;12.95;;;1.95;;
75520;SDS011;64102;48.628;9.002;2024-03-02T04:43:02;11.60;;;2.25;;
75520;SDS011;64102;48.628;9.002;2024-03-02T04:45:28;13.45;;;2.67;;
75520;SDS011;64102;48.628;9.002;2024-03-02T04:47:54;13.30;;;2.08;;
75520;SDS011;64102;48.628;9.002;2024-03-02T04:50:19;12.68;;;2.03;;
75520;SDS011;64102;48.628;9.002;2024-03-02T04:52:44;15.10;;;3.08;;
75520;SDS011;64102;48.628;9.002;2024-03-02T04:55:10;12.23;;;1.77;;
75520;SDS011;64102;48.628;9.002;2024-03-02T04:57:49;12.70;;;2.53;;
75520;SDS011;64102;48.628;9.002;2024-03-02T05:00:16;13.18;;;2.20;;
75520;SDS011;64102;48.628;9.002;2024-03-02T05:02:42;12.25;;;2.08;;
75520;SDS011;64102;48.628;9.002;2024-03-02T05:05:07;12.55;;;2.40;;
75520;SDS011;64102;48.628;9.002;2024-03-02T05:07:33;12.52;;;2.05;;
75520;SDS011;64102;48.628;9.002;2024-03-02T05:09:58;13.90;;;1.93;;
75520;SDS011;64102;48.628;9.002;2024-03-02T05:12:23;11.85;;;2.22;;
75520;SDS011;64102;48.628;9.002;2024-03-02T05:15:07;11.00;;;1.95;;
75520;SDS011;64102;48.628;9.002;2024-03-02T05:17:34;11.65;;;2.03;;
75520;SDS011;64102;48.628;9.002;2024-03-02T05:20:00;10.00;;;1.58;;
75520;SDS011;64102;48.628;9.002;2024-03-02T05:22:25;14.43;;;2.10;;
75520;SDS011;64102;48.628;9.002;2024-03-02T05:24:51;11.43;;;1.87;;
75520;SDS011;64102;48.628;9.002;2024-03-02T05:27:16;13.37;;;2.30;;
75520;SDS011;64102;48.628;9.002;2024-03-02T05:29:41;13.27;;;1.60;;
75520;SDS011;64102;48.628;9.002;2024-03-02T05:32:07;10.77;;;1.60;;
75520;SDS011;64102;48.628;9.002;2024-03-02T05:34:32;13.17;;;2.23;;
75520;SDS011;64102;48.628;9.002;2024-03-02T05:37:00;13.45;;;2.65;;
75520;SDS011;64102;48.628;9.002;2024-03-02T05:39:25;14.88;;;2.20;;
75520;SDS011;64102;48.628;9.002;2024-03-02T05:41:51;19.53;;;2.63;;
75520;SDS011;64102;48.628;9.002;2024-03-02T05:44:16;14.38;;;2.28;;
75520;SDS011;64102;48.628;9.002;2024-03-02T05:46:43;10.75;;;1.85;;
75520;SDS011;64102;48.628;9.002;2024-03-02T05:49:09;14.68;;;2.55;;
75520;SDS011;64102;48.628;9.002;2024-03-02T05:51:34;14.27;;;2.65;;
75520;SDS011;64102;48.628;9.002;2024-03-02T05:54:00;13.57;;;2.17;;
75520;SDS011;64102;48.628;9.002;2024-03-02T05:56:25;12.70;;;1.93;;
75520;SDS011;64102;48.628;9.002;2024-03-02T05:58:51;12.13;;;1.98;;
75520;SDS011;64102;48.628;9.002;2024-03-02T06:01:34;11.15;;;1.88;;
75520;SDS011;64102;48.628;9.002;2024-03-02T06:04:00;14.10;;;2.10;;
75520;SDS011;64102;48.628;9.002;2024-03-02T06:06:25;13.80;;;2.45;;
75520;SDS011;64102;48.628;9.002;2024-03-02T06:08:51;14.23;;;2.08;;
75520;SDS011;64102;48.628;9.002;2024-03-02T06:11:17;14.63;;;2.28;;
75520;SDS011;64102;48.628;9.002;2024-03-02T06:13:44;12.88;;;2.22;;
75520;SDS011;64102;48.628;9.002;2024-03-02T06:16:10;13.20;;;2.28;;
75520;SDS011;64102;48.628;9.002;2024-03-02T06:18:35;12.40;;;1.95;;
75520;SDS011;64102;48.628;9.002;2024-03-02T06:21:00;12.45;;;1.90;;
75520;SDS011;64102;48.628;9.002;2024-03-02T06:23:26;12.45;;;1.92;;
75520;SDS011;64102;48.628;9.002;2024-03-02T06:25:51;14.50;;;2.60;;
75520;SDS011;64102;48.628;9.002;2024-03-02T06:28:17;13.80;;;2.38;;
75520;SDS011;64102;48.628;9.002;2024-03-02T06:30:42;15.00;;;2.87;;
75520;SDS011;64102;48.628;9.002;2024-03-02T06:33:08;15.02;;;2.55;;
75520;SDS011;64102;48.628;9.002;2024-03-02T06:35:34;15.15;;;2.40;;
75520;SDS011;64102;48.628;9.002;2024-03-02T06:38:00;14.85;;;2.65;;
75520;SDS011;64102;48.628;9.002;2024-03-02T06:40:25;17.13;;;3.13;;
75520;SDS011;64102;48.628;9.002;2024-03-02T06:42:51;18.57;;;3.00;;
75520;SDS011;64102;48.628;9.002;2024-03-02T06:45:16;10.70;;;2.35;;
75520;SDS011;64102;48.628;9.002;2024-03-02T06:47:41;12.32;;;2.40;;
75520;SDS011;64102;48.628;9.002;2024-03-02T06:50:07;13.37;;;2.33;;
75520;SDS011;64102;48.628;9.002;2024-03-02T06:52:33;14.93;;;2.35;;
75520;SDS011;64102;48.628;9.002;2024-03-02T06:54:58;14.13;;;2.90;;
75520;SDS011;64102;48.628;9.002;2024-03-02T06:57:23;15.18;;;3.15;;
75520;SDS011;64102;48.628;9.002;2024-03-02T06:59:49;21.08;;;5.50;;
75520;SDS011;64102;48.628;9.002;2024-03-02T07:02:16;13.35;;;2.70;;
75520;SDS011;64102;48.628;9.002;2024-03-02T07:04:42;14.25;;;3.15;;
75520;SDS011;64102;48.628;9.002;2024-03-02T07:07:07;14.55;;;3.35;;
75520;SDS011;64102;48.628;9.002;2024-03-02T07:09:32;17.43;;;3.37;;
75520;SDS011;64102;48.628;9.002;2024-03-02T07:11:58;12.10;;;2.17;;
75520;SDS011;64102;48.628;9.002;2024-03-02T07:14:23;13.48;;;2.35;;
75520;SDS011;64102;48.628;9.002;2024-03-02T07:17:08;11.70;;;2.00;;
75520;SDS011;64102;48.628;9.002;2024-03-02T07:19:35;8.88;;;1.55;;
75520;SDS011;64102;48.628;9.002;2024-03-02T07:22:00;10.80;;;2.10;;
75520;SDS011;64102;48.628;9.002;2024-03-02T07:24:26;9.55;;;1.40;;
75520;SDS011;64102;48.628;9.002;2024-03-02T07:26:51;10.50;;;1.10;;
75520;SDS011;64102;48.628;9.002;2024-03-02T07:29:17;9.60;;;1.10;;
75520;SDS011;64102;48.628;9.002;2024-03-02T07:31:42;8.77;;;1.20;;
75520;SDS011;64102;48.628;9.002;2024-03-02T07:34:07;8.03;;;0.87;;
75520;SDS011;64102;48.628;9.002;2024-03-02T07:36:33;8.80;;;0.97;;
75520;SDS011;64102;48.628;9.002;2024-03-02T07:38:58;8.55;;;1.25;;
75520;SDS011;64102;48.628;9.002;2024-03-02T07:41:23;8.05;;;1.00;;
75520;SDS011;64102;48.628;9.002;2024-03-02T07:43:49;9.13;;;1.10;;
75520;SDS011;64102;48.628;9.002;2024-03-02T07:46:14;7.93;;;0.82;;
75520;SDS011;64102;48.628;9.002;2024-03-02T07:48:40;8.55;;;0.98;;
75520;SDS011;64102;48.628;9.002;2024-03-02T07:51:07;7.57;;;1.15;;
75520;SDS011;64102;48.628;9.002;2024-03-02T07:53:33;10.00;;;1.40;;
75520;SDS011;64102;48.628;9.002;2024-03-02T07:55:58;7.25;;;0.95;;
75520;SDS011;64102;48.628;9.002;2024-03-02T07:58:27;9.80;;;1.50;;
75520;SDS011;64102;48.628;9.002;2024-03-02T08:00:52;9.75;;;1.13;;
75520;SDS011;64102;48.628;9.002;2024-03-02T08:03:18;12.55;;;1.83;;
75520;SDS011;64102;48.628;9.002;2024-03-02T08:05:44;10.20;;;1.52;;
75520;SDS011;64102;48.628;9.002;2024-03-02T08:08:09;9.15;;;1.35;;
75520;SDS011;64102;48.628;9.002;2024-03-02T08:10:35;9.25;;;1.58;;
75520;SDS011;64102;48.628;9.002;2024-03-02T08:13:00;8.90;;;1.17;;
75520;SDS011;64102;48.628;9.002;2024-03-02T08:15:26;9.35;;;1.25;;
75520;SDS011;64102;48.628;9.002;2024-03-02T08:17:51;7.80;;;1.13;;
75520;SDS011;64102;48.628;9.002;2024-03-02T08:20:17;8.85;;;1.30;;
75520;SDS011;64102;48.628;9.002;2024-03-02T08:22:43;8.15;;;0.90;;
75520;SDS011;64102;48.628;9.002;2024-03-02T08:25:10;8.90;;;1.58;;
75520;SDS011;64102;48.628;9.002;2024-03-02T08:27:35;10.70;;;2.83;;
75520;SDS011;64102;48.628;9.002;2024-03-02T08:30:01;8.35;;;1.70;;
75520;SDS011;64102;48.628;9.002;2024-03-02T08:32:28;7.97;;;1.42;;
75520;SDS011;64102;48.628;9.002;2024-03-02T08:34:54;7.50;;;1.07;;
75520;SDS011;64102;48.628;9.002;2024-03-02T08:37:19;8.00;;;1.20;;
75520;SDS011;64102;48.628;9.002;2024-03-02T08:39:45;8.67;;;1.37;;
75520;SDS011;64102;48.628;9.002;2024-03-02T08:42:10;6.63;;;1.00;;
75520;SDS011;64102;48.628;9.002;2024-03-02T08:44:36;8.10;;;1.50;;
75520;SDS011;64102;48.628;9.002;2024-03-02T08:47:01;7.57;;;0.93;;
75520;SDS011;64102;48.628;9.002;2024-03-02T08:49:27;7.22;;;0.80;;
75520;SDS011;64102;48.628;9.002;2024-03-02T08:51:52;7.97;;;0.70;;
75520;SDS011;64102;48.628;9.002;2024-03-02T08:54:23;5.97;;;0.73;;
75520;SDS011;64102;48.628;9.002;2024-03-02T08:56:49;6.40;;;0.80;;
75520;SDS011;64102;48.628;9.002;2024-03-02T08:59:15;7.10;;;0.88;;
75520;SDS011;64102;48.628;9.002;2024-03-02T09:01:41;7.00;;;0.70;;
75520;SDS011;64102;48.628;9.002;2024-03-02T09:04:07;8.27;;;0.82;;
75520;SDS011;64102;48.628;9.002;2024-03-02T09:06:33;7.75;;;0.82;;
75520;SDS011;64102;48.628;9.002;2024-03-02T09:08:59;5.22;;;0.70;;
75520;SDS011;64102;48.628;9.002;2024-03-02T09:11:24;5.70;;;0.50;;
75520;SDS011;64102;48.628;9.002;2024-03-02T09:13:50;6.95;;;1.05;;
75520;SDS011;64102;48.628;9.002;2024-03-02T09:16:16;7.65;;;0.70;;
75520;SDS011;64102;48.628;9.002;2024-03-02T09:18:41;6.55;;;0.80;;
75520;SDS011;64102;48.628;9.002;2024-03-02T09:21:07;6.05;;;0.60;;
75520;SDS011;64102;48.628;9.002;2024-03-02T09:23:33;5.50;;;0.40;;
75520;SDS011;64102;48.628;9.002;2024-03-02T09:25:59;7.40;;;2.28;;
75520;SDS011;64102;48.628;9.002;2024-03-02T09:28:24;5.07;;;0.40;;
75520;SDS011;64102;48.628;9.002;2024-03-02T09:30:50;4.37;;;0.40;;
75520;SDS011;64102;48.628;9.002;2024-03-02T09:33:15;3.93;;;0.33;;
75520;SDS011;64102;48.628;9.002;2024-03-02T09:35:40;4.97;;;0.38;;
75520;SDS011;64102;48.628;9.002;2024-03-02T09:38:06;4.70;;;0.40;;
75520;SDS011;64102;48.628;9.002;2024-03-02T09:40:31;4.00;;;0.30;;
75520;SDS011;64102;48.628;9.002;2024-03-02T09:42:57;4.40;;;0.40;;
75520;SDS011;64102;48.628;9.002;2024-03-02T09:45:23;4.97;;;0.40;;
75520;SDS011;64102;48.628;9.002;2024-03-02T09:47:49;5.00;;;0.30;;
75520;SDS011;64102;48.628;9.002;2024-03-02T09:50:15;4.45;;;0.40;;
75520;SDS011;64102;48.628;9.002;2024-03-02T10:02:46;3.58;;;0.30;;
75520;SDS011;64102;48.628;9.002;2024-03-02T10:05:14;6.97;;;0.98;;
75520;SDS011;64102;48.628;9.002;2024-03-02T10:07:58;10.23;;;1.30;;
75520;SDS011;64102;48.628;9.002;2024-03-02T10:10:26;2.28;;;0.20;;
75520;SDS011;64102;48.628;9.002;2024-03-02T10:13:05;2.53;;;0.30;;
75520;SDS011;64102;48.628;9.002;2024-03-02T10:15:31;3.35;;;0.20;;
75520;SDS011;64102;48.628;9.002;2024-03-02T10:17:59;10.93;;;1.70;;
75520;SDS011;64102;48.628;9.002;2024-03-02T10:20:25;7.93;;;1.15;;
75520;SDS011;64102;48.628;9.002;2024-03-02T10:22:53;6.47;;;0.40;;
75520;SDS011;64102;48.628;9.002;2024-03-02T10:25:29;8.50;;;1.10;;
75520;SDS011;64102;48.628;9.002;2024-03-02T10:28:01;3.25;;;0.32;;
75520;SDS011;64102;48.628;9.002;2024-03-02T10:30:26;2.85;;;0.20;;
75520;SDS011;64102;48.628;9.002;2024-03-02T10:32:53;3.15;;;0.20;;
75520;SDS011;64102;48.628;9.002;2024-03-02T10:35:20;5.40;;;0.20;;
75520;SDS011;64102;48.628;9.002;2024-03-02T10:37:47;3.30;;;0.20;;
75520;SDS011;64102;48.628;9.002;2024-03-02T10:40:13;2.10;;;0.17;;
75520;SDS011;64102;48.628;9.002;2024-03-02T10:42:39;1.40;;;0.10;;
75520;SDS011;64102;48.628;9.002;2024-03-02T10:45:07;2.13;;;0.20;;
75520;SDS011;64102;48.628;9.002;2024-03-02T10:47:37;2.03;;;0.20;;
75520;SDS011;64102;48.628;9.002;2024-03-02T10:50:06;3.67;;;0.30;;
75520;SDS011;64102;48.628;9.002;2024-03-02T10:52:36;1.80;;;0.10;;
75520;SDS011;64102;48.628;9.002;2024-03-02T10:55:05;1.25;;;0.10;;
75520;SDS011;64102;48.628;9.002;2024-03-02T10:57:33;1.02;;;0.10;;
75520;SDS011;64102;48.628;9.002;2024-03-02T11:00:15;2.17;;;0.10;;
75520;SDS011;64102;48.628;9.002;2024-03-02T11:02:46;2.22;;;0.10;;
75520;SDS011;64102;48.628;9.002;2024-03-02T11:05:22;1.40;;;0.10;;
75520;SDS011;64102;48.628;9.002;2024-03-02T11:07:56;2.72;;;0.10;;
75520;SDS011;64102;48.628;9.002;2024-03-02T11:10:52;1.77;;;0.10;;
75520;SDS011;64102;48.628;9.002;2024-03-02T11:13:17;1.83;;;0.15;;
75520;SDS011;64102;48.628;9.002;2024-03-02T11:15:49;2.92;;;0.10;;
75520;SDS011;64102;48.628;9.002;2024-03-02T11:18:19;1.95;;;0.10;;
75520;SDS011;64102;48.628;9.002;2024-03-02T11:20:44;1.00;;;0.00;;
75520;SDS011;64102;48.628;9.002;2024-03-02T11:23:11;2.05;;;0.10;;
75520;SDS011;64102;48.628;9.002;2024-03-02T11:25:36;0.68;;;0.00;;
75520;SDS011;64102;48.628;9.002;2024-03-02T11:28:07;1.10;;;0.00;;
75520;SDS011;64102;48.628;9.002;2024-03-02T11:33:03;3.22;;;0.10;;
75520;SDS011;64102;48.628;9.002;2024-03-02T11:35:35;0.30;;;0.00;;
75520;SDS011;64102;48.628;9.002;2024-03-02T11:38:08;1.33;;;0.00;;
75520;SDS011;64102;48.628;9.002;2024-03-02T11:40:34;1.90;;;0.10;;
75520;SDS011;64102;48.628;9.002;2024-03-02T11:43:00;0.93;;;0.00;;
75520;SDS011;64102;48.628;9.002;2024-03-02T11:45:26;1.42;;;0.08;;
75520;SDS011;64102;48.628;9.002;2024-03-02T11:47:55;1.80;;;0.13;;
75520;SDS011;64102;48.628;9.002;2024-03-02T11:53:22;1.33;;;0.10;;
75520;SDS011;64102;48.628;9.002;2024-03-02T11:55:48;0.60;;;0.00;;
75520;SDS011;64102;48.628;9.002;2024-03-02T11:58:17;2.63;;;0.10;;
75520;SDS011;64102;48.628;9.002;2024-03-02T12:00:43;2.08;;;0.10;;
75520;SDS011;64102;48.628;9.002;2024-03-02T12:03:09;1.48;;;0.10;;
75520;SDS011;64102;48.628;9.002;2024-03-02T12:05:37;0.95;;;0.10;;
75520;SDS011;64102;48.628;9.002;2024-03-02T12:08:03;2.30;;;0.20;;
75520;SDS011;64102;48.628;9.002;2024-03-02T12:10:30;2.03;;;0.20;;
75520;SDS011;64102;48.628;9.002;2024-03-02T12:13:06;1.98;;;0.20;;
75520;SDS011;64102;48.628;9.002;2024-03-02T12:15:35;2.47;;;0.63;;
75520;SDS011;64102;48.628;9.002;2024-03-02T12:18:03;1.63;;;0.20;;
75520;SDS011;64102;48.628;9.002;2024-03-02T12:20:30;2.83;;;0.20;;
75520;SDS011;64102;48.628;9.002;2024-03-02T12:23:00;1.75;;;0.20;;
75520;SDS011;64102;48.628;9.002;2024-03-02T12:25:27;2.25;;;0.30;;
75520;SDS011;64102;48.628;9.002;2024-03-02T12:27:57;1.08;;;0.10;;
75520;SDS011;64102;48.628;9.002;2024-03-02T12:30:26;0.70;;;0.10;;
75520;SDS011;64102;48.628;9.002;2024-03-02T12:32:54;1.00;;;0.47;;
75520;SDS011;64102;48.628;9.002;2024-03-02T12:35:19;1.05;;;0.20;;
75520;SDS011;64102;48.628;9.002;2024-03-02T12:37:49;1.67;;;0.10;;
75520;SDS011;64102;48.628;9.002;2024-03-02T12:40:16;1.17;;;0.10;;
75520;SDS011;64102;48.628;9.002;2024-03-02T12:42:44;1.90;;;0.32;;
75520;SDS011;64102;48.628;9.002;2024-03-02T12:45:10;0.50;;;0.10;;
75520;SDS011;64102;48.628;9.002;2024-03-02T12:47:36;1.10;;;0.20;;
75520;SDS011;64102;48.628;9.002;2024-03-02T12:50:03;1.52;;;0.20;;
75520;SDS011;64102;48.628;9.002;2024-03-02T12:52:30;1.88;;;0.20;;
75520;SDS011;64102;48.628;9.002;2024-03-02T12:54:57;1.60;;;0.20;;
75520;SDS011;64102;48.628;9.002;2024-03-02T12:57:27;2.05;;;0.20;;
75520;SDS011;64102;48.628;9.002;2024-03-02T12:59:57;1.70;;;0.13;;
75520;SDS011;64102;48.628;9.002;2024-03-02T13:02:33;2.38;;;0.22;;
75520;SDS011;64102;48.628;9.002;2024-03-02T13:04:59;2.30;;;0.38;;
75520;SDS011;64102;48.628;9.002;2024-03-02T13:07:25;1.73;;;0.20;;
75520;SDS011;64102;48.628;9.002;2024-03-02T13:09:51;2.67;;;0.47;;
75520;SDS011;64102;48.628;9.002;2024-03-02T13:12:17;3.95;;;0.73;;
75520;SDS011;64102;48.628;9.002;2024-03-02T13:14:44;5.72;;;0.30;;
75520;SDS011;64102;48.628;9.002;2024-03-02T13:17:12;1.98;;;0.20;;
75520;SDS011;64102;48.628;9.002;2024-03-02T13:19:43;2.40;;;0.20;;
75520;SDS011;64102;48.628;9.002;2024-03-02T13:22:35;2.25;;;0.10;;
75520;SDS011;64102;48.628;9.002;2024-03-02T13:25:01;1.90;;;0.13;;
75520;SDS011;64102;48.628;9.002;2024-03-02T13:27:29;1.70;;;0.30;;
75520;SDS011;64102;48.628;9.002;2024-03-02T13:29:56;1.65;;;0.20;;
75520;SDS011;64102;48.628;9.002;2024-03-02T13:32:21;3.47;;;0.20;;
75520;SDS011;64102;48.628;9.002;2024-03-02T13:34:49;2.17;;;0.40;;
75520;SDS011;64102;48.628;9.002;2024-03-02T13:37:14;2.05;;;0.20;;
75520;SDS011;64102;48.628;9.002;2024-03-02T13:39:40;1.17;;;0.10;;
75520;SDS011;64102;48.628;9.002;2024-03-02T13:42:07;1.75;;;0.17;;
75520;SDS011;64102;48.628;9.002;2024-03-02T13:44:34;1.80;;;0.10;;
75520;SDS011;64102;48.628;9.002;2024-03-02T13:47:02;3.40;;;0.10;;
75520;SDS011;64102;48.628;9.002;2024-03-02T13:49:28;1.75;;;0.10;;
75520;SDS011;64102;48.628;9.002;2024-03-02T13:52:07;1.25;;;0.10;;
75520;SDS011;64102;48.628;9.002;2024-03-02T13:54:38;0.82;;;0.08;;
75520;SDS011;64102;48.628;9.002;2024-03-02T13:57:04;2.10;;;0.13;;
75520;SDS011;64102;48.628;9.002;2024-03-02T13:59:30;2.45;;;0.10;;
75520;SDS011;64102;48.628;9.002;2024-03-02T14:01:55;2.78;;;0.10;;
75520;SDS011;64102;48.628;9.002;2024-03-02T14:04:21;3.90;;;0.10;;
75520;SDS011;64102;48.628;9.002;2024-03-02T14:06:47;3.28;;;0.10;;
75520;SDS011;64102;48.628;9.002;2024-03-02T14:09:12;2.28;;;0.10;;
75520;SDS011;64102;48.628;9.002;2024-03-02T14:11:38;2.22;;;0.20;;
75520;SDS011;64102;48.628;9.002;2024-03-02T14:14:03;2.28;;;0.10;;
75520;SDS011;64102;48.628;9.002;2024-03-02T14:16:29;2.00;;;0.10;;
75520;SDS011;64102;48.628;9.002;2024-03-02T14:18:54;2.47;;;0.20;;
75520;SDS011;64102;48.628;9.002;2024-03-02T14:21:20;2.58;;;0.10;;
75520;SDS011;64102;48.628;9.002;2024-03-02T14:23:45;3.40;;;0.20;;
75520;SDS011;64102;48.628;9.002;2024-03-02T14:26:10;3.23;;;0.10;;
75520;SDS011;64102;48.628;9.002;2024-03-02T14:28:36;2.43;;;0.10;;
75520;SDS011;64102;48.628;9.002;2024-03-02T14:31:01;1.33;;;0.10;;
75520;SDS011;64102;48.628;9.002;2024-03-02T14:33:27;2.15;;;0.13;;
75520;SDS011;64102;48.628;9.002;2024-03-02T14:35:53;2.70;;;0.10;;
75520;SDS011;64102;48.628;9.002;2024-03-02T14:38:19;2.33;;;0.10;;
75520;SDS011;64102;48.628;9.002;2024-03-02T14:40:45;1.88;;;0.22;;
75520;SDS011;64102;48.628;9.002;2024-03-02T14:43:10;2.80;;;0.10;;
75520;SDS011;64102;48.628;9.002;2024-03-02T14:45:35;1.77;;;0.20;;
75520;SDS011;64102;48.628;9.002;2024-03-02T14:48:02;2.90;;;0.13;;
75520;SDS011;64102;48.628;9.002;2024-03-02T14:50:27;2.70;;;0.25;;
75520;SDS011;64102;48.628;9.002;2024-03-02T14:52:53;1.80;;;0.10;;
75520;SDS011;64102;48.628;9.002;2024-03-02T14:55:18;3.03;;;0.10;;
75520;SDS011;64102;48.628;9.002;2024-03-02T14:57:43;2.93;;;0.10;;